sensor_id;sensor_type;location;lat;lon;timestamp;pressure;altitude;pressure_sealevel;temperature;humidity
36386;BME280;24125;47.482;8.770;2022-11-15T00:01:52;96154.31;;;8.33;72.25
36386;BME280;24125;47.482;8.770;2022-11-15T00:04:25;96143.50;;;8.30;72.94
36386;BME280;24125;47.482;8.770;2022-11-15T00:06:58;96139.25;;;8.29;72.43
36386;BME280;24125;47.482;8.770;2022-11-15T00:09:31;96139.09;;;8.25;73.06
36386;BME280;24125;47.482;8.770;2022-11-15T00:12:04;96127.19;;;8.23;73.19
36386;BME280;24125;47.482;8.770;2022-11-15T00:14:39;96113.75;;;8.19;73.45
36386;BME280;24125;47.482;8.770;2022-11-15T00:17:12;96107.47;;;8.15;73.46
36386;BME280;24125;47.482;8.770;2022-11-15T00:19:45;96113.88;;;8.14;73.20
36386;BME280;24125;47.482;8.770;2022-11-15T00:22:18;96111.56;;;8.13;74.05
36386;BME280;24125;47.482;8.770;2022-11-15T00:24:51;96118.41;;;8.14;73.61
36386;BME280;24125;47.482;8.770;2022-11-15T00:27:24;96109.19;;;8.11;73.96
36386;BME280;24125;47.482;8.770;2022-11-15T00:29:58;96113.44;;;8.12;73.77
36386;BME280;24125;47.482;8.770;2022-11-15T00:32:31;96109.97;;;8.12;73.65
36386;BME280;24125;47.482;8.770;2022-11-15T00:35:05;96104.19;;;8.10;73.92
36386;BME280;24125;47.482;8.770;2022-11-15T00:37:38;96111.38;;;8.09;73.44
36386;BME280;24125;47.482;8.770;2022-11-15T00:40:11;96115.91;;;8.09;73.52
36386;BME280;24125;47.482;8.770;2022-11-15T00:42:45;96103.72;;;8.08;73.46
36386;BME280;24125;47.482;8.770;2022-11-15T00:45:20;96108.25;;;8.07;73.66
36386;BME280;24125;47.482;8.770;2022-11-15T00:47:53;96097.47;;;8.04;74.31
36386;BME280;24125;47.482;8.770;2022-11-15T00:50:25;96096.34;;;8.05;74.39
36386;BME280;24125;47.482;8.770;2022-11-15T00:52:58;96091.03;;;8.05;74.13
36386;BME280;24125;47.482;8.770;2022-11-15T00:55:31;96087.59;;;8.04;74.29
36386;BME280;24125;47.482;8.770;2022-11-15T00:58:05;96080.38;;;8.05;74.42
36386;BME280;24125;47.482;8.770;2022-11-15T01:00:39;96090.72;;;8.06;74.80
36386;BME280;24125;47.482;8.770;2022-11-15T01:03:12;96080.06;;;8.06;75.61
36386;BME280;24125;47.482;8.770;2022-11-15T01:05:45;96090.09;;;8.09;75.99
36386;BME280;24125;47.482;8.770;2022-11-15T01:08:18;96086.06;;;8.12;75.96
36386;BME280;24125;47.482;8.770;2022-11-15T01:10:52;96089.03;;;8.19;76.16
36386;BME280;24125;47.482;8.770;2022-11-15T01:13:25;96090.44;;;8.25;76.67
36386;BME280;24125;47.482;8.770;2022-11-15T01:16:05;96097.34;;;8.35;76.70
36386;BME280;24125;47.482;8.770;2022-11-15T01:18:39;96092.34;;;8.42;76.59
36386;BME280;24125;47.482;8.770;2022-11-15T01:21:14;96082.50;;;8.51;76.46
36386;BME280;24125;47.482;8.770;2022-11-15T01:23:48;96094.69;;;8.60;76.87
36386;BME280;24125;47.482;8.770;2022-11-15T01:26:26;96091.06;;;8.65;77.21
36386;BME280;24125;47.482;8.770;2022-11-15T01:29:11;96094.50;;;8.74;77.18
36386;BME280;24125;47.482;8.770;2022-11-15T01:31:46;96086.06;;;8.81;76.78
36386;BME280;24125;47.482;8.770;2022-11-15T01:34:20;96077.91;;;8.86;77.02
36386;BME280;24125;47.482;8.770;2022-11-15T01:36:56;96073.34;;;8.95;76.90
36386;BME280;24125;47.482;8.770;2022-11-15T01:39:46;96064.41;;;8.99;77.32
36386;BME280;24125;47.482;8.770;2022-11-15T01:42:20;96056.88;;;9.10;77.09
36386;BME280;24125;47.482;8.770;2022-11-15T01:44:56;96040.72;;;9.15;77.17
36386;BME280;24125;47.482;8.770;2022-11-15T01:47:36;96043.38;;;9.24;77.05
36386;BME280;24125;47.482;8.770;2022-11-15T01:50:20;96038.31;;;9.31;77.19
36386;BME280;24125;47.482;8.770;2022-11-15T01:52:57;96044.25;;;9.36;77.04
36386;BME280;24125;47.482;8.770;2022-11-15T01:55:35;96038.09;;;9.44;76.52
36386;BME280;24125;47.482;8.770;2022-11-15T01:58:13;96040.28;;;9.51;76.12
36386;BME280;24125;47.482;8.770;2022-11-15T02:00:48;96046.97;;;9.57;75.47
36386;BME280;24125;47.482;8.770;2022-11-15T02:03:33;96043.00;;;9.63;75.19
36386;BME280;24125;47.482;8.770;2022-11-15T02:06:09;96039.56;;;9.63;75.36
36386;BME280;24125;47.482;8.770;2022-11-15T02:08:43;96036.59;;;9.64;75.33
36386;BME280;24125;47.482;8.770;2022-11-15T02:11:16;96029.38;;;9.65;75.68
36386;BME280;24125;47.482;8.770;2022-11-15T02:13:50;96021.84;;;9.67;75.50
36386;BME280;24125;47.482;8.770;2022-11-15T02:16:28;96020.06;;;9.71;75.52
36386;BME280;24125;47.482;8.770;2022-11-15T02:19:20;96019.44;;;9.74;75.39
36386;BME280;24125;47.482;8.770;2022-11-15T02:22:05;96010.81;;;9.77;75.62
36386;BME280;24125;47.482;8.770;2022-11-15T02:25:09;96003.72;;;9.81;75.58
36386;BME280;24125;47.482;8.770;2022-11-15T02:27:59;96004.63;;;9.85;75.77
36386;BME280;24125;47.482;8.770;2022-11-15T02:30:41;96002.09;;;9.89;75.90
36386;BME280;24125;47.482;8.770;2022-11-15T02:33:26;96005.34;;;9.94;75.63
36386;BME280;24125;47.482;8.770;2022-11-15T02:36:05;95997.47;;;9.98;75.51
36386;BME280;24125;47.482;8.770;2022-11-15T02:38:43;96002.94;;;10.01;75.93
36386;BME280;24125;47.482;8.770;2022-11-15T02:41:23;96003.84;;;10.05;75.78
36386;BME280;24125;47.482;8.770;2022-11-15T02:44:01;95994.09;;;10.09;75.68
36386;BME280;24125;47.482;8.770;2022-11-15T02:46:39;95987.31;;;10.12;75.29
36386;BME280;24125;47.482;8.770;2022-11-15T02:49:33;95986.66;;;10.15;75.25
36386;BME280;24125;47.482;8.770;2022-11-15T02:52:07;95983.69;;;10.16;75.24
36386;BME280;24125;47.482;8.770;2022-11-15T02:54:40;95986.34;;;10.16;74.94
36386;BME280;24125;47.482;8.770;2022-11-15T02:57:16;96006.41;;;10.23;75.12
36386;BME280;24125;47.482;8.770;2022-11-15T03:00:06;96012.22;;;10.25;74.49
36386;BME280;24125;47.482;8.770;2022-11-15T03:03:00;96010.00;;;10.27;74.51
36386;BME280;24125;47.482;8.770;2022-11-15T03:05:42;95999.66;;;10.25;74.35
36386;BME280;24125;47.482;8.770;2022-11-15T03:08:21;95996.97;;;10.25;74.23
36386;BME280;24125;47.482;8.770;2022-11-15T03:11:02;95999.31;;;10.27;74.40
36386;BME280;24125;47.482;8.770;2022-11-15T03:13:40;95998.53;;;10.26;74.71
36386;BME280;24125;47.482;8.770;2022-11-15T03:16:23;95986.00;;;10.27;74.42
36386;BME280;24125;47.482;8.770;2022-11-15T03:19:07;95975.78;;;10.29;74.62
36386;BME280;24125;47.482;8.770;2022-11-15T03:21:44;95969.66;;;10.28;74.50
36386;BME280;24125;47.482;8.770;2022-11-15T03:24:19;95962.44;;;10.29;74.52
36386;BME280;24125;47.482;8.770;2022-11-15T03:26:59;95961.66;;;10.28;74.50
36386;BME280;24125;47.482;8.770;2022-11-15T03:29:45;95961.31;;;10.30;74.60
36386;BME280;24125;47.482;8.770;2022-11-15T03:32:28;95961.66;;;10.28;74.49
36386;BME280;24125;47.482;8.770;2022-11-15T03:35:06;95952.88;;;10.28;74.64
36386;BME280;24125;47.482;8.770;2022-11-15T03:37:44;95954.28;;;10.25;74.54
36386;BME280;24125;47.482;8.770;2022-11-15T03:40:22;95949.75;;;10.26;74.67
36386;BME280;24125;47.482;8.770;2022-11-15T03:43:02;95948.19;;;10.25;74.05
36386;BME280;24125;47.482;8.770;2022-11-15T03:45:43;95946.59;;;10.24;73.93
36386;BME280;24125;47.482;8.770;2022-11-15T03:48:21;95943.84;;;10.20;74.08
36386;BME280;24125;47.482;8.770;2022-11-15T03:50:56;95949.50;;;10.18;73.94
36386;BME280;24125;47.482;8.770;2022-11-15T03:53:30;95960.94;;;10.19;74.18
36386;BME280;24125;47.482;8.770;2022-11-15T03:56:04;95954.66;;;10.15;73.84
36386;BME280;24125;47.482;8.770;2022-11-15T03:58:37;95952.00;;;10.15;74.08
36386;BME280;24125;47.482;8.770;2022-11-15T04:01:10;95945.41;;;10.12;74.33
36386;BME280;24125;47.482;8.770;2022-11-15T04:03:44;95950.75;;;10.12;73.96
36386;BME280;24125;47.482;8.770;2022-11-15T04:06:18;95953.88;;;10.14;74.11
36386;BME280;24125;47.482;8.770;2022-11-15T04:08:51;95946.19;;;10.13;74.23
36386;BME280;24125;47.482;8.770;2022-11-15T04:11:24;95948.53;;;10.14;74.14
36386;BME280;24125;47.482;8.770;2022-11-15T04:13:57;95946.19;;;10.13;74.21
36386;BME280;24125;47.482;8.770;2022-11-15T04:16:30;95948.09;;;10.12;74.27
36386;BME280;24125;47.482;8.770;2022-11-15T04:19:03;95949.97;;;10.12;73.90
36386;BME280;24125;47.482;8.770;2022-11-15T04:22:07;95954.56;;;10.11;74.10
36386;BME280;24125;47.482;8.770;2022-11-15T04:25:17;95963.97;;;10.09;74.00
36386;BME280;24125;47.482;8.770;2022-11-15T04:27:55;95967.28;;;10.06;73.58
36386;BME280;24125;47.482;8.770;2022-11-15T04:30:28;95960.28;;;10.01;73.10
36386;BME280;24125;47.482;8.770;2022-11-15T04:33:01;95951.69;;;9.96;72.67
36386;BME280;24125;47.482;8.770;2022-11-15T04:35:34;95945.78;;;9.90;72.55
36386;BME280;24125;47.482;8.770;2022-11-15T04:38:10;95947.41;;;9.82;71.88
36386;BME280;24125;47.482;8.770;2022-11-15T04:40:43;95952.78;;;9.74;72.15
36386;BME280;24125;47.482;8.770;2022-11-15T04:43:16;95948.31;;;9.66;72.14
36386;BME280;24125;47.482;8.770;2022-11-15T04:45:49;95943.34;;;9.56;72.10
36386;BME280;24125;47.482;8.770;2022-11-15T04:48:22;95940.75;;;9.47;72.25
36386;BME280;24125;47.482;8.770;2022-11-15T04:50:55;95940.78;;;9.38;72.01
36386;BME280;24125;47.482;8.770;2022-11-15T04:53:29;95939.44;;;9.32;72.02
36386;BME280;24125;47.482;8.770;2022-11-15T04:56:03;95925.69;;;9.22;72.18
36386;BME280;24125;47.482;8.770;2022-11-15T04:58:36;95926.53;;;9.14;72.38
36386;BME280;24125;47.482;8.770;2022-11-15T05:01:09;95921.72;;;9.07;72.37
36386;BME280;24125;47.482;8.770;2022-11-15T05:03:44;95927.50;;;9.00;72.32
36386;BME280;24125;47.482;8.770;2022-11-15T05:06:35;95924.88;;;8.92;72.57
36386;BME280;24125;47.482;8.770;2022-11-15T05:09:09;95923.97;;;8.88;72.50
36386;BME280;24125;47.482;8.770;2022-11-15T05:11:44;95913.38;;;8.79;72.21
36386;BME280;24125;47.482;8.770;2022-11-15T05:14:18;95914.31;;;8.75;72.74
36386;BME280;24125;47.482;8.770;2022-11-15T05:16:51;95906.03;;;8.67;72.71
36386;BME280;24125;47.482;8.770;2022-11-15T05:19:24;95914.69;;;8.64;72.77
36386;BME280;24125;47.482;8.770;2022-11-15T05:21:57;95911.72;;;8.57;72.83
36386;BME280;24125;47.482;8.770;2022-11-15T05:24:31;95904.38;;;8.54;73.11
36386;BME280;24125;47.482;8.770;2022-11-15T05:27:04;95899.53;;;8.48;72.65
36386;BME280;24125;47.482;8.770;2022-11-15T05:29:37;95903.63;;;8.45;72.84
36386;BME280;24125;47.482;8.770;2022-11-15T05:32:11;95893.16;;;8.40;72.78
36386;BME280;24125;47.482;8.770;2022-11-15T05:34:45;95899.91;;;8.38;72.57
36386;BME280;24125;47.482;8.770;2022-11-15T05:37:19;95895.97;;;8.35;72.29
36386;BME280;24125;47.482;8.770;2022-11-15T05:39:53;95894.22;;;8.30;72.95
36386;BME280;24125;47.482;8.770;2022-11-15T05:42:27;95897.22;;;8.29;72.98
36386;BME280;24125;47.482;8.770;2022-11-15T05:45:03;95895.97;;;8.26;72.77
36386;BME280;24125;47.482;8.770;2022-11-15T05:47:38;95889.72;;;8.22;72.76
36386;BME280;24125;47.482;8.770;2022-11-15T05:50:12;95880.81;;;8.18;72.97
36386;BME280;24125;47.482;8.770;2022-11-15T05:52:47;95885.34;;;8.18;73.29
36386;BME280;24125;47.482;8.770;2022-11-15T05:55:21;95879.56;;;8.16;73.14
36386;BME280;24125;47.482;8.770;2022-11-15T05:57:55;95882.88;;;8.13;73.66
36386;BME280;24125;47.482;8.770;2022-11-15T06:00:28;95882.09;;;8.12;74.08
36386;BME280;24125;47.482;8.770;2022-11-15T06:03:01;95893.97;;;8.15;74.28
36386;BME280;24125;47.482;8.770;2022-11-15T06:05:34;95886.44;;;8.17;75.06
36386;BME280;24125;47.482;8.770;2022-11-15T06:08:07;95888.50;;;8.20;75.05
36386;BME280;24125;47.482;8.770;2022-11-15T06:10:42;95892.06;;;8.24;74.75
36386;BME280;24125;47.482;8.770;2022-11-15T06:13:16;95881.91;;;8.26;75.19
36386;BME280;24125;47.482;8.770;2022-11-15T06:15:49;95887.38;;;8.29;74.86
36386;BME280;24125;47.482;8.770;2022-11-15T06:18:22;95881.13;;;8.34;75.31
36386;BME280;24125;47.482;8.770;2022-11-15T06:20:58;95884.72;;;8.38;75.09
36386;BME280;24125;47.482;8.770;2022-11-15T06:23:32;95877.97;;;8.41;74.82
36386;BME280;24125;47.482;8.770;2022-11-15T06:26:07;95884.53;;;8.43;74.72
36386;BME280;24125;47.482;8.770;2022-11-15T06:28:40;95884.22;;;8.45;74.85
36386;BME280;24125;47.482;8.770;2022-11-15T06:31:13;95884.34;;;8.48;74.70
36386;BME280;24125;47.482;8.770;2022-11-15T06:33:46;95886.69;;;8.50;75.06
36386;BME280;24125;47.482;8.770;2022-11-15T06:36:21;95879.50;;;8.50;74.76
36386;BME280;24125;47.482;8.770;2022-11-15T06:38:55;95884.19;;;8.53;74.52
36386;BME280;24125;47.482;8.770;2022-11-15T06:41:30;95880.44;;;8.54;74.10
36386;BME280;24125;47.482;8.770;2022-11-15T06:44:03;95884.97;;;8.54;74.25
36386;BME280;24125;47.482;8.770;2022-11-15T06:46:36;95891.09;;;8.54;73.79
36386;BME280;24125;47.482;8.770;2022-11-15T06:49:10;95884.97;;;8.54;73.72
36386;BME280;24125;47.482;8.770;2022-11-15T06:51:43;95896.41;;;8.54;73.78
36386;BME280;24125;47.482;8.770;2022-11-15T06:54:16;95900.16;;;8.53;74.06
36386;BME280;24125;47.482;8.770;2022-11-15T06:56:50;95899.50;;;8.56;74.56
36386;BME280;24125;47.482;8.770;2022-11-15T06:59:23;95901.84;;;8.58;74.91
36386;BME280;24125;47.482;8.770;2022-11-15T07:01:56;95894.81;;;8.62;75.50
36386;BME280;24125;47.482;8.770;2022-11-15T07:04:29;95890.53;;;8.69;75.64
36386;BME280;24125;47.482;8.770;2022-11-15T07:07:02;95885.50;;;8.77;76.43
36386;BME280;24125;47.482;8.770;2022-11-15T07:09:35;95887.34;;;8.85;76.50
36386;BME280;24125;47.482;8.770;2022-11-15T07:12:09;95891.22;;;8.96;76.62
36386;BME280;24125;47.482;8.770;2022-11-15T07:14:42;95894.28;;;9.06;77.26
36386;BME280;24125;47.482;8.770;2022-11-15T07:17:15;95897.34;;;9.17;77.62
36386;BME280;24125;47.482;8.770;2022-11-15T07:19:48;95897.59;;;9.33;77.45
36386;BME280;24125;47.482;8.770;2022-11-15T07:22:21;95895.44;;;9.47;77.61
36386;BME280;24125;47.482;8.770;2022-11-15T07:24:54;95883.41;;;9.62;77.45
36386;BME280;24125;47.482;8.770;2022-11-15T07:27:28;95884.38;;;9.78;77.68
36386;BME280;24125;47.482;8.770;2022-11-15T07:30:03;95884.13;;;9.92;77.36
36386;BME280;24125;47.482;8.770;2022-11-15T07:32:36;95879.59;;;10.04;76.63
36386;BME280;24125;47.482;8.770;2022-11-15T07:35:09;95884.69;;;10.18;76.32
36386;BME280;24125;47.482;8.770;2022-11-15T07:37:42;95885.38;;;10.27;76.07
36386;BME280;24125;47.482;8.770;2022-11-15T07:40:16;95883.72;;;10.35;75.87
36386;BME280;24125;47.482;8.770;2022-11-15T07:42:51;95879.09;;;10.44;75.57
36386;BME280;24125;47.482;8.770;2022-11-15T07:45:27;95889.22;;;10.50;75.13
36386;BME280;24125;47.482;8.770;2022-11-15T07:48:00;95882.22;;;10.58;75.29
36386;BME280;24125;47.482;8.770;2022-11-15T07:50:34;95892.00;;;10.66;74.81
36386;BME280;24125;47.482;8.770;2022-11-15T07:53:08;95886.13;;;10.73;74.32
36386;BME280;24125;47.482;8.770;2022-11-15T07:55:41;95889.69;;;10.77;73.76
36386;BME280;24125;47.482;8.770;2022-11-15T07:58:16;95885.25;;;10.81;73.35
36386;BME280;24125;47.482;8.770;2022-11-15T08:00:49;95885.34;;;10.84;73.17
36386;BME280;24125;47.482;8.770;2022-11-15T08:03:22;95886.13;;;10.85;73.16
36386;BME280;24125;47.482;8.770;2022-11-15T08:05:55;95882.34;;;10.86;73.48
36386;BME280;24125;47.482;8.770;2022-11-15T08:08:28;95883.59;;;10.88;73.39
36386;BME280;24125;47.482;8.770;2022-11-15T08:11:02;95880.91;;;10.88;73.57
36386;BME280;24125;47.482;8.770;2022-11-15T08:13:36;95875.66;;;10.92;73.04
36386;BME280;24125;47.482;8.770;2022-11-15T08:16:09;95878.00;;;10.93;73.62
36386;BME280;24125;47.482;8.770;2022-11-15T08:18:43;95869.00;;;10.98;73.64
36386;BME280;24125;47.482;8.770;2022-11-15T08:21:19;95865.78;;;11.05;73.37
36386;BME280;24125;47.482;8.770;2022-11-15T08:23:52;95861.63;;;11.07;73.60
36386;BME280;24125;47.482;8.770;2022-11-15T08:26:26;95844.28;;;11.13;73.53
36386;BME280;24125;47.482;8.770;2022-11-15T08:29:02;95837.59;;;11.19;72.74
36386;BME280;24125;47.482;8.770;2022-11-15T08:31:36;95850.69;;;11.24;74.18
36386;BME280;24125;47.482;8.770;2022-11-15T08:34:09;95842.47;;;11.29;74.52
36386;BME280;24125;47.482;8.770;2022-11-15T08:36:42;95846.13;;;11.37;74.05
36386;BME280;24125;47.482;8.770;2022-11-15T08:39:16;95842.09;;;11.43;74.75
36386;BME280;24125;47.482;8.770;2022-11-15T08:41:49;95848.88;;;11.53;75.37
36386;BME280;24125;47.482;8.770;2022-11-15T08:44:24;95845.28;;;11.61;74.62
36386;BME280;24125;47.482;8.770;2022-11-15T08:46:56;95838.59;;;11.67;74.70
36386;BME280;24125;47.482;8.770;2022-11-15T08:49:29;95846.50;;;11.76;74.38
36386;BME280;24125;47.482;8.770;2022-11-15T08:52:02;95845.56;;;11.84;74.07
36386;BME280;24125;47.482;8.770;2022-11-15T08:54:35;95837.75;;;11.91;74.15
36386;BME280;24125;47.482;8.770;2022-11-15T08:57:08;95841.03;;;12.00;73.93
36386;BME280;24125;47.482;8.770;2022-11-15T08:59:43;95848.59;;;12.10;73.85
36386;BME280;24125;47.482;8.770;2022-11-15T09:02:17;95841.19;;;12.19;74.84
36386;BME280;24125;47.482;8.770;2022-11-15T09:04:50;95833.72;;;12.28;73.17
36386;BME280;24125;47.482;8.770;2022-11-15T09:07:23;95835.56;;;12.40;73.34
36386;BME280;24125;47.482;8.770;2022-11-15T09:09:56;95829.38;;;12.52;73.89
36386;BME280;24125;47.482;8.770;2022-11-15T09:12:29;95833.06;;;12.63;73.69
36386;BME280;24125;47.482;8.770;2022-11-15T09:15:04;95836.44;;;12.75;72.54
36386;BME280;24125;47.482;8.770;2022-11-15T09:17:37;95838.59;;;12.85;72.98
36386;BME280;24125;47.482;8.770;2022-11-15T09:20:10;95832.28;;;12.94;73.13
36386;BME280;24125;47.482;8.770;2022-11-15T09:22:43;95837.00;;;13.00;72.75
36386;BME280;24125;47.482;8.770;2022-11-15T09:25:18;95842.28;;;13.12;72.90
36386;BME280;24125;47.482;8.770;2022-11-15T09:27:51;95842.47;;;13.19;73.06
36386;BME280;24125;47.482;8.770;2022-11-15T09:30:26;95852.31;;;13.31;72.62
36386;BME280;24125;47.482;8.770;2022-11-15T09:33:06;95852.50;;;13.42;72.67
36386;BME280;24125;47.482;8.770;2022-11-15T09:35:39;95838.13;;;13.50;72.69
36386;BME280;24125;47.482;8.770;2022-11-15T09:38:12;95849.06;;;13.60;73.50
36386;BME280;24125;47.482;8.770;2022-11-15T09:40:49;95855.44;;;13.72;72.81
36386;BME280;24125;47.482;8.770;2022-11-15T09:43:38;95850.34;;;13.86;71.95
36386;BME280;24125;47.482;8.770;2022-11-15T09:46:22;95862.44;;;13.95;71.55
36386;BME280;24125;47.482;8.770;2022-11-15T09:48:57;95861.88;;;14.06;72.20
36386;BME280;24125;47.482;8.770;2022-11-15T09:51:33;95853.25;;;14.16;71.71
36386;BME280;24125;47.482;8.770;2022-11-15T09:54:11;95838.81;;;14.24;72.03
36386;BME280;24125;47.482;8.770;2022-11-15T09:57:11;95830.94;;;14.34;72.37
36386;BME280;24125;47.482;8.770;2022-11-15T09:59:58;95825.78;;;14.45;71.44
36386;BME280;24125;47.482;8.770;2022-11-15T10:03:11;95834.88;;;14.60;72.31
36386;BME280;24125;47.482;8.770;2022-11-15T10:05:48;95834.97;;;14.67;71.88
36386;BME280;24125;47.482;8.770;2022-11-15T10:08:35;95840.94;;;14.80;71.42
36386;BME280;24125;47.482;8.770;2022-11-15T10:11:11;95839.91;;;14.88;71.71
36386;BME280;24125;47.482;8.770;2022-11-15T10:14:11;95837.03;;;15.00;71.55
36386;BME280;24125;47.482;8.770;2022-11-15T10:20:10;95819.66;;;15.20;70.50
36386;BME280;24125;47.482;8.770;2022-11-15T10:22:47;95822.44;;;15.27;71.08
36386;BME280;24125;47.482;8.770;2022-11-15T10:25:23;95818.28;;;15.33;71.45
36386;BME280;24125;47.482;8.770;2022-11-15T10:27:58;95803.81;;;15.41;71.23
36386;BME280;24125;47.482;8.770;2022-11-15T10:30:34;95806.22;;;15.50;71.19
36386;BME280;24125;47.482;8.770;2022-11-15T10:33:17;95805.59;;;15.60;71.06
36386;BME280;24125;47.482;8.770;2022-11-15T10:36:20;95796.47;;;15.68;70.44
36386;BME280;24125;47.482;8.770;2022-11-15T10:38:56;95800.81;;;15.76;70.47
36386;BME280;24125;47.482;8.770;2022-11-15T10:41:40;95794.72;;;15.83;70.19
36386;BME280;24125;47.482;8.770;2022-11-15T10:44:25;95797.91;;;15.92;70.35
36386;BME280;24125;47.482;8.770;2022-11-15T10:47:23;95786.06;;;16.00;69.24
36386;BME280;24125;47.482;8.770;2022-11-15T10:49:59;95782.69;;;16.07;69.54
36386;BME280;24125;47.482;8.770;2022-11-15T10:52:35;95779.28;;;16.13;69.27
36386;BME280;24125;47.482;8.770;2022-11-15T10:55:22;95777.84;;;16.23;69.35
36386;BME280;24125;47.482;8.770;2022-11-15T10:58:05;95785.97;;;16.30;69.45
36386;BME280;24125;47.482;8.770;2022-11-15T11:00:38;95788.31;;;16.35;69.74
36386;BME280;24125;47.482;8.770;2022-11-15T11:03:28;95786.50;;;16.43;69.24
36386;BME280;24125;47.482;8.770;2022-11-15T11:06:10;95782.31;;;16.49;68.87
36386;BME280;24125;47.482;8.770;2022-11-15T11:09:04;95778.13;;;16.55;68.50
36386;BME280;24125;47.482;8.770;2022-11-15T11:11:44;95781.22;;;16.60;68.44
36386;BME280;24125;47.482;8.770;2022-11-15T11:14:20;95772.44;;;16.64;69.06
36386;BME280;24125;47.482;8.770;2022-11-15T11:17:00;95762.06;;;16.69;68.74
36386;BME280;24125;47.482;8.770;2022-11-15T11:19:55;95756.34;;;16.74;68.23
36386;BME280;24125;47.482;8.770;2022-11-15T11:22:34;95760.22;;;16.77;67.98
36386;BME280;24125;47.482;8.770;2022-11-15T11:25:19;95753.28;;;16.79;67.96
36386;BME280;24125;47.482;8.770;2022-11-15T11:28:03;95754.88;;;16.84;67.74
36386;BME280;24125;47.482;8.770;2022-11-15T11:30:44;95746.03;;;16.87;68.01
36386;BME280;24125;47.482;8.770;2022-11-15T11:33:22;95746.44;;;16.89;68.23
36386;BME280;24125;47.482;8.770;2022-11-15T11:36:06;95744.94;;;16.95;67.70
36386;BME280;24125;47.482;8.770;2022-11-15T11:38:58;95746.13;;;17.01;68.04
36386;BME280;24125;47.482;8.770;2022-11-15T11:41:50;95733.81;;;17.07;67.29
36386;BME280;24125;47.482;8.770;2022-11-15T11:44:42;95719.22;;;17.12;67.69
36386;BME280;24125;47.482;8.770;2022-11-15T11:47:21;95709.22;;;17.16;67.20
36386;BME280;24125;47.482;8.770;2022-11-15T11:50:10;95699.22;;;17.23;66.93
36386;BME280;24125;47.482;8.770;2022-11-15T11:52:54;95693.06;;;17.30;66.68
36386;BME280;24125;47.482;8.770;2022-11-15T11:55:37;95691.19;;;17.34;66.49
36386;BME280;24125;47.482;8.770;2022-11-15T11:58:15;95675.78;;;17.38;66.16
36386;BME280;24125;47.482;8.770;2022-11-15T12:00:53;95680.81;;;17.43;66.26
36386;BME280;24125;47.482;8.770;2022-11-15T12:03:30;95679.28;;;17.46;66.01
36386;BME280;24125;47.482;8.770;2022-11-15T12:06:21;95675.03;;;17.52;65.51
36386;BME280;24125;47.482;8.770;2022-11-15T12:09:02;95671.19;;;17.53;65.95
36386;BME280;24125;47.482;8.770;2022-11-15T12:11:47;95664.63;;;17.57;65.59
36386;BME280;24125;47.482;8.770;2022-11-15T12:14:29;95658.88;;;17.59;65.29
36386;BME280;24125;47.482;8.770;2022-11-15T12:17:04;95654.63;;;17.61;66.04
36386;BME280;24125;47.482;8.770;2022-11-15T12:19:39;95646.97;;;17.63;65.65
36386;BME280;24125;47.482;8.770;2022-11-15T12:22:18;95634.22;;;17.67;64.85
36386;BME280;24125;47.482;8.770;2022-11-15T12:24:56;95631.56;;;17.71;64.65
36386;BME280;24125;47.482;8.770;2022-11-15T12:27:35;95622.66;;;17.74;64.17
36386;BME280;24125;47.482;8.770;2022-11-15T12:30:14;95625.38;;;17.78;64.50
36386;BME280;24125;47.482;8.770;2022-11-15T12:32:51;95624.63;;;17.81;64.15
36386;BME280;24125;47.482;8.770;2022-11-15T12:35:32;95613.81;;;17.84;64.31
36386;BME280;24125;47.482;8.770;2022-11-15T12:38:09;95614.97;;;17.87;63.95
36386;BME280;24125;47.482;8.770;2022-11-15T12:41:12;95610.34;;;17.91;63.21
36386;BME280;24125;47.482;8.770;2022-11-15T12:43:46;95613.44;;;17.93;63.00
36386;BME280;24125;47.482;8.770;2022-11-15T12:46:58;95609.59;;;17.97;62.06
36386;BME280;24125;47.482;8.770;2022-11-15T12:49:44;95607.63;;;18.01;62.79
36386;BME280;24125;47.482;8.770;2022-11-15T12:52:18;95604.16;;;18.01;63.09
36386;BME280;24125;47.482;8.770;2022-11-15T12:55:08;95594.16;;;18.05;62.53
36386;BME280;24125;47.482;8.770;2022-11-15T12:58:26;95596.84;;;18.05;63.38
36386;BME280;24125;47.482;8.770;2022-11-15T13:01:01;95596.06;;;18.04;64.01
36386;BME280;24125;47.482;8.770;2022-11-15T13:04:08;95586.44;;;18.07;63.28
36386;BME280;24125;47.482;8.770;2022-11-15T13:06:42;95588.34;;;18.03;63.73
36386;BME280;24125;47.482;8.770;2022-11-15T13:09:54;95594.53;;;18.03;63.47
36386;BME280;24125;47.482;8.770;2022-11-15T13:12:56;95592.22;;;17.98;63.53
36386;BME280;24125;47.482;8.770;2022-11-15T13:15:38;95585.25;;;17.94;64.30
36386;BME280;24125;47.482;8.770;2022-11-15T13:18:28;95585.66;;;17.89;64.09
36386;BME280;24125;47.482;8.770;2022-11-15T13:21:18;95577.53;;;17.82;63.92
36386;BME280;24125;47.482;8.770;2022-11-15T13:24:12;95565.22;;;17.70;64.39
36386;BME280;24125;47.482;8.770;2022-11-15T13:26:46;95568.66;;;17.60;64.72
36386;BME280;24125;47.482;8.770;2022-11-15T13:29:19;95559.00;;;17.55;65.05
36386;BME280;24125;47.482;8.770;2022-11-15T13:31:53;95558.59;;;17.50;65.81
36386;BME280;24125;47.482;8.770;2022-11-15T13:34:28;95554.75;;;17.44;65.35
36386;BME280;24125;47.482;8.770;2022-11-15T13:37:30;95553.22;;;17.43;64.10
36386;BME280;24125;47.482;8.770;2022-11-15T13:40:20;95536.63;;;17.41;64.21
36386;BME280;24125;47.482;8.770;2022-11-15T13:42:54;95538.16;;;17.34;64.89
36386;BME280;24125;47.482;8.770;2022-11-15T13:45:26;95533.16;;;17.29;65.00
36386;BME280;24125;47.482;8.770;2022-11-15T13:48:03;95523.91;;;17.27;64.80
36386;BME280;24125;47.482;8.770;2022-11-15T13:50:38;95518.09;;;17.21;65.24
36386;BME280;24125;47.482;8.770;2022-11-15T13:53:13;95516.56;;;17.17;65.47
36386;BME280;24125;47.482;8.770;2022-11-15T13:55:46;95515.75;;;17.13;65.46
36386;BME280;24125;47.482;8.770;2022-11-15T13:58:19;95520.41;;;17.09;65.60
36386;BME280;24125;47.482;8.770;2022-11-15T14:00:59;95520.00;;;17.07;65.40
36386;BME280;24125;47.482;8.770;2022-11-15T14:03:37;95508.06;;;17.01;65.58
36386;BME280;24125;47.482;8.770;2022-11-15T14:06:19;95516.50;;;16.95;65.53